createdAt,value
2018-08-09T00:00:14.597Z,25.01
2018-08-09T00:01:26.413Z,25.22
2018-08-09T00:02:37.834Z,25.04
2018-08-09T00:03:52.851Z,24.84
2018-08-09T00:05:02.136Z,24.97
2018-08-09T00:06:08.192Z,25.01
2018-08-09T00:07:14.136Z,25.24
2018-08-09T00:08:20.105Z,25.19
2018-08-09T00:09:25.359Z,25.14
2018-08-09T00:10:30.748Z,25.04
2018-08-09T00:11:36.869Z,24.77
2018-08-09T00:12:42.813Z,24.87
2018-08-09T00:13:48.931Z,24.77
2018-08-09T00:14:55.561Z,24.90
2018-08-09T00:16:01.963Z,24.98
2018-08-09T00:17:08.016Z,24.90
2018-08-09T00:18:14.258Z,24.99
2018-08-09T00:19:19.731Z,24.88
2018-08-09T00:20:25.822Z,24.96
2018-08-09T00:21:32.272Z,24.95
2018-08-09T00:22:38.496Z,24.85
2018-08-09T00:23:44.861Z,24.78
2018-08-09T00:24:55.364Z,24.68
2018-08-09T00:26:01.807Z,24.65
2018-08-09T00:27:08.072Z,24.60
2018-08-09T00:28:14.372Z,24.61
2018-08-09T00:29:20.377Z,24.50
2018-08-09T00:30:26.028Z,24.47
2018-08-09T00:31:32.114Z,24.36
2018-08-09T00:32:38.412Z,24.32
2018-08-09T00:33:44.840Z,24.37
2018-08-09T00:34:51.004Z,24.27
2018-08-09T00:35:57.323Z,24.43
2018-08-09T00:37:03.858Z,24.56
2018-08-09T00:38:09.940Z,24.34
2018-08-09T00:39:16.260Z,24.48
2018-08-09T00:40:22.559Z,24.48
2018-08-09T00:41:28.903Z,24.35
2018-08-09T00:42:35.177Z,24.29
2018-08-09T00:43:41.143Z,24.32
2018-08-09T00:44:47.095Z,24.21
2018-08-09T00:45:53.437Z,24.41
2018-08-09T00:46:59.903Z,24.47
2018-08-09T00:48:06.517Z,24.49
2018-08-09T00:49:12.520Z,24.48
2018-08-09T00:50:19.351Z,24.24
2018-08-09T00:51:25.609Z,24.35
2018-08-09T00:52:31.547Z,24.21
2018-08-09T00:53:37.904Z,24.06
2018-08-09T00:54:44.211Z,24.11
2018-08-09T00:55:50.235Z,24.20
2018-08-09T00:56:56.568Z,24.32
2018-08-09T00:58:02.847Z,24.21
2018-08-09T00:59:08.560Z,24.08
2018-08-09T01:00:14.561Z,24.11
2018-08-09T01:01:20.286Z,24.05
2018-08-09T01:02:26.594Z,24.17
2018-08-09T01:03:32.910Z,24.17
2018-08-09T01:04:39.185Z,24.34
2018-08-09T01:05:45.495Z,24.23
2018-08-09T01:06:51.477Z,24.01
2018-08-09T01:07:57.549Z,24.07
2018-08-09T01:09:03.033Z,24.00
2018-08-09T01:10:08.484Z,24.23
2018-08-09T01:11:14.911Z,24.04
2018-08-09T01:12:20.695Z,24.05
2018-08-09T01:13:26.835Z,24.07
2018-08-09T01:14:33.119Z,24.04
2018-08-09T01:15:39.435Z,24.06
2018-08-09T01:16:45.774Z,23.97
2018-08-09T01:17:51.810Z,24.01
2018-08-09T01:18:58.070Z,24.01
2018-08-09T01:20:03.706Z,23.86
2018-08-09T01:21:09.662Z,23.83
2018-08-09T01:22:15.706Z,23.86
2018-08-09T01:23:21.363Z,23.77
2018-08-09T01:24:27.423Z,23.93
2018-08-09T01:25:33.071Z,23.88
2018-08-09T01:26:39.100Z,23.71
2018-08-09T01:27:45.419Z,23.80
2018-08-09T01:28:51.719Z,23.84
2018-08-09T01:29:57.824Z,23.93
2018-08-09T01:31:03.784Z,24.01
2018-08-09T01:32:09.786Z,23.89
2018-08-09T01:33:16.029Z,24.03
2018-08-09T01:34:22.340Z,23.90
2018-08-09T01:35:28.356Z,23.91
2018-08-09T01:36:34.365Z,24.00
2018-08-09T01:37:40.956Z,23.93
2018-08-09T01:38:47.181Z,23.79
2018-08-09T01:39:53.487Z,23.72
2018-08-09T01:40:59.824Z,23.62
2018-08-09T01:43:57.556Z,23.63
2018-08-09T01:45:03.896Z,23.67
2018-08-09T01:46:09.864Z,23.64
2018-08-09T01:47:16.320Z,23.48
2018-08-09T01:48:22.649Z,23.36
2018-08-09T01:49:28.907Z,23.54
2018-08-09T01:50:35.162Z,23.59
2018-08-09T01:51:41.460Z,23.58
2018-08-09T01:52:47.778Z,23.61
2018-08-09T01:53:54.068Z,23.39
2018-08-09T01:55:01.884Z,23.34
2018-08-09T01:56:08.223Z,23.38
2018-08-09T01:57:15.456Z,23.55
2018-08-09T01:58:21.440Z,23.45
2018-08-09T01:59:27.136Z,23.27
2018-08-09T02:00:33.223Z,23.23
2018-08-09T02:01:39.489Z,23.33
2018-08-09T02:02:45.481Z,23.43
2018-08-09T02:03:51.476Z,23.41
2018-08-09T02:05:04.488Z,23.35
2018-08-09T02:06:24.912Z,23.30
2018-08-09T02:07:35.085Z,23.34
2018-08-09T02:08:41.136Z,23.18
2018-08-09T02:09:47.417Z,23.07
2018-08-09T02:10:53.516Z,23.10
2018-08-09T02:11:59.867Z,23.22
2018-08-09T02:13:05.768Z,23.18
2018-08-09T02:14:11.817Z,23.33
2018-08-09T02:15:18.673Z,23.29
2018-08-09T02:16:24.795Z,23.15
2018-08-09T02:17:31.687Z,23.15
2018-08-09T02:18:37.881Z,23.05
2018-08-09T02:19:45.232Z,23.12
2018-08-09T02:20:51.659Z,23.18
2018-08-09T02:21:58.092Z,23.04
2018-08-09T02:23:04.803Z,23.02
2018-08-09T02:24:11.205Z,22.96
2018-08-09T02:25:17.535Z,22.93
2018-08-09T02:26:23.486Z,22.89
2018-08-09T02:27:29.837Z,22.83
2018-08-09T02:28:36.284Z,22.85
2018-08-09T02:29:42.559Z,22.90
2018-08-09T02:30:48.871Z,23.15
2018-08-09T02:31:55.815Z,23.03
2018-08-09T02:33:02.155Z,23.06
2018-08-09T02:34:08.463Z,23.03
2018-08-09T02:35:14.912Z,23.00
2018-08-09T02:36:21.262Z,23.00
2018-08-09T02:37:27.560Z,22.86
2018-08-09T02:38:33.923Z,22.94
2018-08-09T02:39:40.215Z,22.84
2018-08-09T02:40:46.525Z,22.71
2018-08-09T02:41:52.865Z,22.70
2018-08-09T02:42:59.250Z,22.69
2018-08-09T02:44:05.325Z,22.61
2018-08-09T02:45:11.750Z,22.59
2018-08-09T02:46:18.819Z,22.53
2018-08-09T02:47:25.218Z,22.55
2018-08-09T02:48:31.882Z,22.63
2018-08-09T02:49:38.485Z,22.61
2018-08-09T02:50:44.863Z,22.64
2018-08-09T02:51:51.260Z,22.63
2018-08-09T02:52:57.587Z,22.72
2018-08-09T02:54:03.555Z,22.84
2018-08-09T02:55:09.937Z,22.94
2018-08-09T02:56:15.580Z,22.91
2018-08-09T02:57:22.013Z,22.92
2018-08-09T02:58:28.349Z,22.90
2018-08-09T02:59:34.658Z,22.81
2018-08-09T03:00:40.935Z,22.71
2018-08-09T03:01:47.632Z,22.55
2018-08-09T03:02:54.296Z,22.50
2018-08-09T03:04:00.633Z,22.55
2018-08-09T03:05:06.371Z,22.50
2018-08-09T03:06:12.814Z,22.46
2018-08-09T03:07:18.796Z,22.50
2018-08-09T03:08:25.200Z,22.55
2018-08-09T03:09:31.619Z,22.58
2018-08-09T03:10:37.504Z,22.54
2018-08-09T03:11:43.636Z,22.54
2018-08-09T03:12:50.060Z,22.65
2018-08-09T03:13:56.212Z,22.64
2018-08-09T03:15:02.624Z,22.54
2018-08-09T03:16:08.907Z,22.49
2018-08-09T03:17:15.032Z,22.47
2018-08-09T03:18:21.245Z,22.52
2018-08-09T03:19:27.358Z,22.63
2018-08-09T03:20:33.740Z,22.55
2018-08-09T03:21:39.688Z,22.38
2018-08-09T03:22:46.058Z,22.35
2018-08-09T03:23:52.405Z,22.36
2018-08-09T03:24:59.260Z,22.33
2018-08-09T03:26:05.408Z,22.34
2018-08-09T03:27:11.721Z,22.35
2018-08-09T03:28:18.044Z,22.37
2018-08-09T03:29:24.380Z,22.32
2018-08-09T03:30:30.652Z,22.28
2018-08-09T03:31:36.943Z,22.25
2018-08-09T03:32:43.292Z,22.28
2018-08-09T03:33:49.618Z,22.27
2018-08-09T03:34:55.892Z,22.31
2018-08-09T03:36:02.331Z,22.39
2018-08-09T03:37:08.400Z,22.46
2018-08-09T03:38:14.965Z,22.48
2018-08-09T03:39:21.694Z,22.42
2018-08-09T03:40:27.981Z,22.31
2018-08-09T03:41:34.285Z,22.44
2018-08-09T03:42:40.627Z,22.40
2018-08-09T03:43:46.660Z,22.40
2018-08-09T03:44:53.144Z,22.31
2018-08-09T03:45:59.537Z,22.46
2018-08-09T03:47:05.199Z,22.38
2018-08-09T03:48:11.700Z,22.35
2018-08-09T03:49:18.091Z,22.35
2018-08-09T03:50:24.384Z,22.31
2018-08-09T03:51:30.684Z,22.23
2018-08-09T03:52:36.986Z,22.26
2018-08-09T03:53:43.308Z,22.36
2018-08-09T03:54:49.761Z,22.39
2018-08-09T03:55:56.734Z,22.32
2018-08-09T03:57:03.177Z,22.30
2018-08-09T03:58:09.231Z,22.35
2018-08-09T03:59:15.885Z,22.30
2018-08-09T04:00:22.214Z,22.19
2018-08-09T04:01:28.721Z,22.15
2018-08-09T04:02:35.061Z,22.16
2018-08-09T04:03:41.360Z,22.13
2018-08-09T04:04:47.355Z,22.11
2018-08-09T04:05:53.806Z,22.06
2018-08-09T04:07:00.135Z,22.05
2018-08-09T04:08:18.880Z,22.12
2018-08-09T04:09:39.797Z,22.07
2018-08-09T04:10:51.972Z,22.04
2018-08-09T04:11:58.291Z,22.01
2018-08-09T04:13:04.537Z,22.09
2018-08-09T04:14:10.935Z,22.02
2018-08-09T04:15:17.214Z,22.02
2018-08-09T04:16:23.566Z,21.96
2018-08-09T04:17:29.876Z,22.04
2018-08-09T04:18:35.975Z,22.04
2018-08-09T04:19:42.857Z,22.22
2018-08-09T04:20:49.324Z,22.05
2018-08-09T04:21:54.916Z,21.96
2018-08-09T04:23:01.330Z,22.00
2018-08-09T04:24:07.753Z,22.09
2018-08-09T04:25:14.023Z,22.11
2018-08-09T04:26:20.373Z,22.03
2018-08-09T04:27:26.649Z,21.99
2018-08-09T04:28:33.067Z,21.99
2018-08-09T04:29:39.096Z,21.94
2018-08-09T04:30:45.488Z,22.13
2018-08-09T04:31:51.455Z,22.06
2018-08-09T04:32:57.831Z,22.00
2018-08-09T04:34:04.105Z,21.95
2018-08-09T04:35:11.019Z,21.99
2018-08-09T04:36:17.140Z,21.95
2018-08-09T04:37:23.567Z,21.93
2018-08-09T04:38:29.877Z,21.92
2018-08-09T04:39:36.295Z,21.95
2018-08-09T04:40:42.599Z,22.04
2018-08-09T04:41:48.914Z,22.01
2018-08-09T04:42:55.220Z,22.01
2018-08-09T04:44:01.540Z,21.97
2018-08-09T04:45:07.513Z,21.97
2018-08-09T04:46:13.993Z,22.03
2018-08-09T04:47:19.949Z,22.04
2018-08-09T04:48:26.427Z,22.02
2018-08-09T04:49:32.719Z,21.98
2018-08-09T04:50:39.000Z,21.97
2018-08-09T04:51:45.312Z,21.98
2018-08-09T04:52:51.629Z,21.97
2018-08-09T04:53:57.923Z,22.00
2018-08-09T04:55:03.921Z,22.01
2018-08-09T04:56:10.348Z,22.02
2018-08-09T04:57:16.668Z,22.06
2018-08-09T04:58:23.017Z,22.07
2018-08-09T04:59:29.602Z,22.05
2018-08-09T05:00:35.952Z,22.06
2018-08-09T05:01:42.491Z,22.11
2018-08-09T05:02:48.829Z,22.16
2018-08-09T05:03:56.361Z,22.14
2018-08-09T05:05:02.908Z,22.11
2018-08-09T05:06:10.017Z,22.13
2018-08-09T05:07:16.909Z,22.15
2018-08-09T05:08:24.046Z,22.19
2018-08-09T05:09:30.493Z,22.25
2018-08-09T05:10:36.938Z,22.30
2018-08-09T05:11:44.773Z,22.24
2018-08-09T05:12:51.704Z,22.28
2018-08-09T05:13:58.004Z,22.24
2018-08-09T05:15:03.724Z,22.26
2018-08-09T05:16:09.136Z,22.33
2018-08-09T05:17:15.533Z,22.35
2018-08-09T05:18:21.915Z,22.36
2018-08-09T05:19:28.266Z,22.37
2018-08-09T05:20:34.572Z,22.35
2018-08-09T05:21:40.851Z,22.34
2018-08-09T05:22:47.238Z,22.36
2018-08-09T05:23:58.552Z,22.36
2018-08-09T05:25:04.244Z,22.39
2018-08-09T05:26:10.491Z,22.37
2018-08-09T05:27:16.808Z,22.38
2018-08-09T05:28:23.117Z,22.37
2018-08-09T05:29:29.433Z,22.40
2018-08-09T05:30:35.782Z,22.34
2018-08-09T05:31:42.060Z,22.42
2018-08-09T05:32:48.404Z,22.48
2018-08-09T05:33:54.693Z,22.46
2018-08-09T05:35:00.993Z,22.48
2018-08-09T05:36:07.340Z,22.54
2018-08-09T05:37:13.313Z,22.57
2018-08-09T05:38:19.758Z,22.57
2018-08-09T05:39:26.471Z,22.51
2018-08-09T05:40:33.203Z,22.48
2018-08-09T05:41:39.595Z,22.50
2018-08-09T05:42:45.625Z,22.60
2018-08-09T05:43:52.932Z,22.70
2018-08-09T05:44:59.250Z,22.69
2018-08-09T05:46:04.702Z,22.69
2018-08-09T05:47:11.059Z,22.63
2018-08-09T05:48:17.479Z,22.67
2018-08-09T05:49:23.798Z,22.65
2018-08-09T05:50:30.206Z,22.78
2018-08-09T05:51:36.511Z,22.87
2018-08-09T05:52:42.580Z,22.85
2018-08-09T05:53:49.126Z,22.78
2018-08-09T05:54:55.493Z,22.81
2018-08-09T05:56:01.811Z,22.85
2018-08-09T05:57:07.820Z,22.84
2018-08-09T05:58:14.286Z,22.96
2018-08-09T05:59:20.399Z,22.99
2018-08-09T06:00:26.714Z,23.04
2018-08-09T06:01:32.649Z,23.00
2018-08-09T06:02:38.908Z,23.04
2018-08-09T06:03:45.244Z,22.94
2018-08-09T06:04:51.314Z,23.06
2018-08-09T06:05:57.663Z,23.05
2018-08-09T06:07:03.524Z,23.12
2018-08-09T06:08:09.956Z,23.24
2018-08-09T06:09:16.370Z,23.35
2018-08-09T06:10:22.708Z,23.35
2018-08-09T06:11:38.016Z,23.30
2018-08-09T06:12:46.998Z,23.30
2018-08-09T06:14:07.372Z,23.37
2018-08-09T06:15:14.384Z,23.23
2018-08-09T06:16:20.671Z,23.13
2018-08-09T06:17:26.980Z,23.14
2018-08-09T06:18:33.376Z,23.24
2018-08-09T06:19:39.816Z,23.37
2018-08-09T06:20:45.797Z,23.28
2018-08-09T06:21:52.245Z,23.20
2018-08-09T06:22:58.773Z,23.30
2018-08-09T06:24:04.434Z,23.13
2018-08-09T06:25:10.398Z,23.26
2018-08-09T06:26:16.802Z,23.29
2018-08-09T06:27:23.259Z,23.39
2018-08-09T06:28:29.556Z,23.52
2018-08-09T06:29:35.352Z,23.51
2018-08-09T06:30:41.481Z,23.61
2018-08-09T06:31:47.772Z,23.61
2018-08-09T06:32:54.122Z,23.58
2018-08-09T06:34:00.624Z,23.66
2018-08-09T06:35:06.576Z,23.69
2018-08-09T06:36:13.054Z,23.60
2018-08-09T06:37:18.999Z,23.62
2018-08-09T06:38:24.549Z,23.60
2018-08-09T06:39:30.262Z,23.74
2018-08-09T06:40:36.259Z,23.85
2018-08-09T06:41:42.569Z,23.84
2018-08-09T06:42:48.851Z,23.87
2018-08-09T06:44:02.918Z,24.00
2018-08-09T06:45:08.953Z,23.97
2018-08-09T06:46:14.996Z,24.04
2018-08-09T06:47:21.095Z,24.07
2018-08-09T06:48:27.392Z,23.91
2018-08-09T06:49:33.704Z,23.83
2018-08-09T06:50:39.658Z,23.86
2018-08-09T06:51:46.006Z,23.82
2018-08-09T06:52:52.312Z,23.98
2018-08-09T06:53:58.625Z,23.89
2018-08-09T06:55:09.743Z,24.04
2018-08-09T06:56:16.102Z,24.03
2018-08-09T06:57:22.160Z,24.15
2018-08-09T06:58:28.112Z,24.22
2018-08-09T06:59:34.595Z,24.21
2018-08-09T07:00:40.931Z,24.16
2018-08-09T07:01:46.885Z,24.43
2018-08-09T07:02:52.982Z,24.48
2018-08-09T07:03:58.909Z,24.54
2018-08-09T07:05:04.537Z,24.46
2018-08-09T07:06:10.844Z,24.35
2018-08-09T07:07:17.169Z,24.31
2018-08-09T07:08:23.075Z,24.29
2018-08-09T07:09:29.372Z,24.27
2018-08-09T07:10:35.692Z,24.30
2018-08-09T07:11:41.743Z,24.37
2018-08-09T07:12:48.146Z,24.47
2018-08-09T07:13:54.500Z,24.38
2018-08-09T07:15:00.556Z,24.28
2018-08-09T07:16:06.537Z,24.42
2018-08-09T07:17:12.916Z,24.36
2018-08-09T07:18:18.961Z,24.23
2018-08-09T07:19:25.280Z,24.31
2018-08-09T07:20:31.221Z,24.57
2018-08-09T07:21:38.291Z,24.51
2018-08-09T07:22:44.608Z,24.68
2018-08-09T07:23:50.544Z,24.61
2018-08-09T07:24:56.599Z,24.84
2018-08-09T07:26:02.935Z,25.04
2018-08-09T07:27:08.920Z,25.01
2018-08-09T07:28:14.924Z,25.13
2018-08-09T07:29:20.544Z,24.94
2018-08-09T07:30:26.896Z,24.96
2018-08-09T07:31:33.849Z,24.93
2018-08-09T07:32:39.879Z,25.27
2018-08-09T07:33:46.330Z,25.28
2018-08-09T07:34:52.550Z,25.31
2018-08-09T07:35:58.523Z,25.35
2018-08-09T07:37:04.534Z,25.30
2018-08-09T07:38:10.256Z,25.42
2018-08-09T07:39:17.031Z,25.42
2018-08-09T07:40:23.355Z,25.51
2018-08-09T07:41:29.370Z,25.42
2018-08-09T07:42:35.343Z,25.43
2018-08-09T07:43:41.345Z,25.54
2018-08-09T07:44:47.343Z,25.77
2018-08-09T07:45:53.381Z,25.69
2018-08-09T07:46:59.401Z,25.84
2018-08-09T07:48:05.804Z,25.64
2018-08-09T07:49:11.780Z,25.51
2018-08-09T07:50:18.112Z,25.41
2018-08-09T07:51:24.455Z,25.61
2018-08-09T07:52:30.089Z,25.62
2018-08-09T07:53:36.101Z,25.56
2018-08-09T07:54:42.144Z,25.78
2018-08-09T07:55:48.119Z,25.72
2018-08-09T07:56:53.851Z,25.84
2018-08-09T07:58:00.600Z,25.99
2018-08-09T07:59:06.672Z,26.04
2018-08-09T08:00:12.316Z,26.25
2018-08-09T08:01:18.166Z,26.43
2018-08-09T08:02:24.248Z,26.37
2018-08-09T08:03:30.293Z,26.39
2018-08-09T08:04:36.261Z,26.51
2018-08-09T08:05:42.290Z,26.60
2018-08-09T08:06:48.527Z,26.74
2018-08-09T08:07:54.476Z,26.75
2018-08-09T08:09:00.492Z,26.72
2018-08-09T08:10:06.590Z,26.80
2018-08-09T08:11:12.594Z,26.77
2018-08-09T08:12:18.293Z,26.90
2018-08-09T08:13:24.296Z,26.94
2018-08-09T08:14:38.691Z,26.86
2018-08-09T08:15:48.530Z,26.71
2018-08-09T08:17:02.918Z,26.55
2018-08-09T08:18:13.179Z,26.82
2018-08-09T08:19:18.894Z,26.97
2018-08-09T08:20:24.555Z,27.22
2018-08-09T08:21:30.510Z,27.10
2018-08-09T08:22:36.252Z,27.21
2018-08-09T08:23:42.288Z,27.24
2018-08-09T08:24:48.296Z,27.06
2018-08-09T08:25:53.976Z,27.19
2018-08-09T08:27:00.029Z,27.18
2018-08-09T08:28:05.710Z,27.23
2018-08-09T08:29:11.799Z,27.38
2018-08-09T08:30:17.844Z,27.49
2018-08-09T08:31:23.842Z,27.70
2018-08-09T08:32:29.847Z,27.71
2018-08-09T08:33:35.849Z,27.59
2018-08-09T08:34:41.901Z,27.75
2018-08-09T08:35:48.156Z,27.77
2018-08-09T08:36:54.304Z,27.73
2018-08-09T08:37:59.696Z,27.65
2018-08-09T08:39:04.964Z,27.71
2018-08-09T08:40:10.252Z,27.80
2018-08-09T08:41:16.365Z,27.58
2018-08-09T08:42:22.273Z,27.74
2018-08-09T08:43:28.224Z,27.83
2018-08-09T08:44:34.269Z,27.97
2018-08-09T08:45:40.243Z,27.81
2018-08-09T08:46:45.926Z,27.95
2018-08-09T08:47:51.972Z,28.03
2018-08-09T08:48:57.954Z,27.99
2018-08-09T08:50:04.343Z,27.89
2018-08-09T08:51:10.089Z,27.99
2018-08-09T08:52:16.203Z,28.05
2018-08-09T08:53:22.191Z,28.12
2018-08-09T08:54:28.146Z,28.11
2018-08-09T08:55:34.141Z,28.11
2018-08-09T08:56:40.283Z,28.19
2018-08-09T08:57:45.660Z,28.15
2018-08-09T08:58:51.324Z,28.06
2018-08-09T08:59:56.928Z,28.22
2018-08-09T09:01:02.828Z,28.42
2018-08-09T09:02:09.014Z,28.50
2018-08-09T09:03:14.875Z,28.57
2018-08-09T09:04:21.080Z,28.53
2018-08-09T09:05:27.100Z,28.84
2018-08-09T09:06:32.781Z,28.96
2018-08-09T09:07:38.498Z,28.93
2018-08-09T09:08:44.255Z,28.86
2018-08-09T09:09:50.303Z,28.68
2018-08-09T09:10:56.280Z,28.72
2018-08-09T09:12:01.752Z,28.38
2018-08-09T09:13:07.813Z,28.26
2018-08-09T09:14:13.847Z,28.55
2018-08-09T09:15:19.483Z,28.80
2018-08-09T09:16:26.134Z,28.95
2018-08-09T09:17:32.260Z,29.07
2018-08-09T09:18:38.011Z,29.03
2018-08-09T09:19:43.816Z,28.90
2018-08-09T09:20:49.636Z,28.81
2018-08-09T09:21:55.759Z,28.91
2018-08-09T09:23:02.947Z,28.91
2018-08-09T09:24:09.634Z,28.84
2018-08-09T09:25:16.265Z,28.89
2018-08-09T09:28:21.971Z,29.29
2018-08-09T09:29:32.380Z,29.35
2018-08-09T09:30:38.015Z,29.54
2018-08-09T09:31:43.930Z,29.57
2018-08-09T09:32:49.870Z,29.62
2018-08-09T09:33:55.836Z,29.75
2018-08-09T09:35:01.808Z,29.54
2018-08-09T09:36:07.972Z,29.53
2018-08-09T09:37:13.930Z,29.61
2018-08-09T09:38:19.919Z,29.66
2018-08-09T09:39:25.847Z,29.81
2018-08-09T09:40:31.478Z,29.50
2018-08-09T09:41:37.202Z,29.51
2018-08-09T09:42:42.588Z,29.41
2018-08-09T09:43:48.540Z,29.30
2018-08-09T09:44:54.245Z,29.65
2018-08-09T09:46:00.208Z,29.92
2018-08-09T09:47:05.829Z,29.94
2018-08-09T09:48:11.467Z,29.99
2018-08-09T09:49:17.389Z,29.74
2018-08-09T09:50:22.690Z,29.77
2018-08-09T09:51:28.806Z,29.85
2018-08-09T09:52:34.807Z,29.91
2018-08-09T09:53:40.791Z,30.21
2018-08-09T09:54:46.729Z,30.19
2018-08-09T09:55:52.693Z,30.10
2018-08-09T09:56:58.710Z,30.33
2018-08-09T09:58:04.313Z,30.43
2018-08-09T09:59:10.259Z,30.44
2018-08-09T10:00:15.963Z,30.62
2018-08-09T10:01:21.433Z,30.40
2018-08-09T10:02:27.400Z,30.29
2018-08-09T10:03:33.378Z,30.49
2018-08-09T10:04:39.335Z,30.41
2018-08-09T10:05:45.324Z,30.30
2018-08-09T10:06:51.291Z,30.39
2018-08-09T10:07:57.281Z,30.73
2018-08-09T10:09:02.995Z,31.00
2018-08-09T10:10:08.346Z,30.76
2018-08-09T10:11:14.319Z,30.50
2018-08-09T10:12:20.325Z,30.59
2018-08-09T10:13:25.879Z,30.52
2018-08-09T10:14:31.817Z,30.57
2018-08-09T10:15:37.531Z,30.75
2018-08-09T10:16:43.533Z,30.73
2018-08-09T10:17:49.548Z,30.82
2018-08-09T10:18:55.484Z,30.89
2018-08-09T10:20:01.450Z,31.00
2018-08-09T10:21:07.087Z,31.15
2018-08-09T10:22:13.069Z,31.24
2018-08-09T10:23:19.016Z,31.30
2018-08-09T10:24:24.993Z,31.22
2018-08-09T10:25:31.134Z,31.24
2018-08-09T10:26:37.119Z,31.24
2018-08-09T10:27:43.145Z,31.28
2018-08-09T10:28:49.131Z,31.23
2018-08-09T10:29:55.134Z,31.14
2018-08-09T10:31:01.255Z,31.53
2018-08-09T10:32:07.214Z,31.44
2018-08-09T10:33:13.178Z,31.53
2018-08-09T10:34:19.125Z,31.59
2018-08-09T10:35:25.067Z,31.73
2018-08-09T10:36:30.865Z,31.60
2018-08-09T10:37:36.796Z,31.51
2018-08-09T10:38:42.696Z,31.75
2018-08-09T10:39:48.616Z,31.89
2018-08-09T10:40:54.248Z,31.79
2018-08-09T10:42:00.201Z,31.82
2018-08-09T10:43:06.188Z,31.80
2018-08-09T10:44:11.809Z,31.88
2018-08-09T10:45:17.394Z,31.78
2018-08-09T10:46:23.295Z,31.70
2018-08-09T10:47:28.922Z,31.63
2018-08-09T10:48:34.880Z,31.51
2018-08-09T10:49:40.796Z,31.70
2018-08-09T10:50:46.739Z,31.74
2018-08-09T10:51:52.703Z,31.93
2018-08-09T10:52:58.649Z,31.91
2018-08-09T10:54:04.603Z,32.06
2018-08-09T10:55:10.547Z,31.90
2018-08-09T10:56:16.533Z,32.02
2018-08-09T10:57:22.163Z,32.04
2018-08-09T10:58:27.873Z,32.35
2018-08-09T10:59:33.861Z,32.52
2018-08-09T11:00:39.849Z,32.14
2018-08-09T11:01:45.818Z,32.25
2018-08-09T11:02:51.941Z,32.29
2018-08-09T11:03:57.933Z,32.56
2018-08-09T11:05:03.533Z,32.25
2018-08-09T11:06:09.101Z,32.12
2018-08-09T11:07:14.822Z,32.30
2018-08-09T11:08:20.768Z,32.37
2018-08-09T11:09:26.711Z,32.15
2018-08-09T11:10:32.701Z,32.37
2018-08-09T11:11:38.655Z,32.56
2018-08-09T11:12:44.632Z,32.63
2018-08-09T11:13:50.613Z,32.67
2018-08-09T11:14:56.631Z,32.62
2018-08-09T11:16:02.888Z,32.74
2018-08-09T11:17:08.940Z,32.70
2018-08-09T11:18:14.921Z,32.71
2018-08-09T11:19:20.904Z,32.90
2018-08-09T11:20:26.523Z,32.88
2018-08-09T11:21:32.509Z,33.06
2018-08-09T11:22:38.462Z,32.94
2018-08-09T11:23:44.515Z,33.11
2018-08-09T11:24:50.854Z,33.26
2018-08-09T11:25:57.178Z,33.46
2018-08-09T11:27:03.558Z,33.70
2018-08-09T11:28:09.496Z,33.59
2018-08-09T11:29:28.424Z,33.49
2018-08-09T11:30:39.158Z,33.42
2018-08-09T11:32:00.260Z,33.35
2018-08-09T11:33:09.713Z,33.69
2018-08-09T11:34:17.790Z,33.30
2018-08-09T11:35:23.987Z,33.15
2018-08-09T11:36:29.913Z,33.13
2018-08-09T11:37:35.878Z,33.00
2018-08-09T11:38:41.848Z,33.28
2018-08-09T11:39:47.828Z,33.52
2018-08-09T11:40:53.752Z,33.52
2018-08-09T11:41:59.721Z,33.44
2018-08-09T11:43:05.387Z,33.51
2018-08-09T11:44:11.553Z,33.64
2018-08-09T11:45:17.195Z,34.00
2018-08-09T11:46:23.173Z,34.11
2018-08-09T11:47:29.142Z,33.91
2018-08-09T11:48:35.156Z,33.90
2018-08-09T11:49:41.141Z,33.84
2018-08-09T11:50:46.743Z,34.16
2018-08-09T11:51:52.690Z,34.25
2018-08-09T11:53:02.214Z,33.99
2018-08-09T11:54:08.208Z,33.76
2018-08-09T11:55:14.171Z,33.86
2018-08-09T11:56:20.138Z,33.61
2018-08-09T11:57:26.158Z,33.63
2018-08-09T11:58:32.174Z,33.57
2018-08-09T11:59:38.167Z,33.85
2018-08-09T12:00:44.073Z,34.18
2018-08-09T12:01:49.686Z,33.96
2018-08-09T12:02:55.777Z,33.73
2018-08-09T12:04:02.040Z,33.90
2018-08-09T12:05:07.738Z,33.79
2018-08-09T12:06:13.660Z,33.83
2018-08-09T12:07:19.632Z,34.22
2018-08-09T12:08:25.606Z,34.15
2018-08-09T12:09:31.555Z,34.23
2018-08-09T12:10:37.725Z,34.41
2018-08-09T12:11:43.693Z,34.41
2018-08-09T12:12:49.275Z,34.39
2018-08-09T12:13:54.909Z,34.64
2018-08-09T12:15:00.907Z,34.72
2018-08-09T12:16:06.381Z,34.75
2018-08-09T12:17:12.333Z,34.36
2018-08-09T12:18:18.266Z,34.25
2018-08-09T12:19:23.898Z,34.22
2018-08-09T12:20:29.887Z,34.33
2018-08-09T12:21:35.873Z,34.33
2018-08-09T12:22:41.488Z,34.46
2018-08-09T12:23:46.757Z,34.58
2018-08-09T12:24:52.697Z,34.20
2018-08-09T12:25:58.748Z,34.08
2018-08-09T12:27:04.373Z,34.23
2018-08-09T12:28:10.547Z,34.59
2018-08-09T12:29:15.895Z,34.74
2018-08-09T12:30:21.901Z,34.68
2018-08-09T12:31:27.659Z,34.63
2018-08-09T12:32:33.252Z,34.49
2018-08-09T12:33:38.499Z,34.58
2018-08-09T12:34:44.132Z,34.71
2018-08-09T12:35:49.736Z,34.50
2018-08-09T12:36:55.303Z,34.49
2018-08-09T12:38:00.586Z,34.37
2018-08-09T12:39:05.888Z,34.08
2018-08-09T12:40:11.179Z,34.05
2018-08-09T12:41:17.735Z,34.20
2018-08-09T12:42:23.397Z,34.24
2018-08-09T12:43:28.983Z,34.44
2018-08-09T12:44:34.251Z,34.58
2018-08-09T12:45:39.302Z,34.42
2018-08-09T12:46:44.793Z,34.39
2018-08-09T12:47:50.435Z,34.28
2018-08-09T12:48:56.012Z,34.33
2018-08-09T12:50:02.030Z,34.35
2018-08-09T12:51:07.620Z,34.66
2018-08-09T12:52:13.589Z,34.69
2018-08-09T12:53:19.775Z,34.67
2018-08-09T12:54:25.756Z,34.43
2018-08-09T12:55:31.365Z,34.36
2018-08-09T12:56:36.643Z,34.51
2018-08-09T12:57:42.249Z,34.68
2018-08-09T12:58:47.503Z,35.03
2018-08-09T12:59:53.169Z,35.22
2018-08-09T13:00:59.023Z,35.04
2018-08-09T13:02:04.284Z,35.32
2018-08-09T13:03:09.900Z,35.21
2018-08-09T13:04:15.848Z,35.12
2018-08-09T13:05:21.813Z,35.17
2018-08-09T13:06:27.412Z,35.25
2018-08-09T13:07:33.073Z,35.42
2018-08-09T13:08:38.323Z,35.69
2018-08-09T13:09:43.982Z,35.91
2018-08-09T13:10:49.671Z,35.88
2018-08-09T13:11:55.483Z,36.06
2018-08-09T13:13:01.075Z,35.81
2018-08-09T13:14:06.403Z,35.89
2018-08-09T13:15:11.706Z,35.99
2018-08-09T13:16:17.302Z,36.02
2018-08-09T13:17:22.906Z,35.58
2018-08-09T13:18:28.292Z,35.41
2018-08-09T13:19:34.306Z,35.25
2018-08-09T13:20:39.627Z,35.10
2018-08-09T13:21:45.297Z,35.16
2018-08-09T13:22:51.252Z,35.08
2018-08-09T13:23:56.508Z,35.02
2018-08-09T13:25:02.065Z,34.91
2018-08-09T13:26:07.439Z,35.05
2018-08-09T13:27:13.636Z,35.28
2018-08-09T13:28:19.596Z,35.50
2018-08-09T13:29:25.576Z,35.57
2018-08-09T13:30:31.560Z,35.44
2018-08-09T13:31:36.818Z,35.25
2018-08-09T13:32:52.586Z,35.06
2018-08-09T13:34:05.877Z,34.80
2018-08-09T13:35:20.322Z,35.04
2018-08-09T13:36:25.695Z,35.25
2018-08-09T13:37:30.941Z,35.50
2018-08-09T13:38:36.895Z,35.27
2018-08-09T13:39:42.846Z,35.31
2018-08-09T13:40:48.891Z,35.40
2018-08-09T13:41:54.492Z,35.46
2018-08-09T13:43:00.180Z,35.29
2018-08-09T13:44:05.940Z,35.44
2018-08-09T13:45:11.203Z,35.38
2018-08-09T13:46:16.854Z,35.38
2018-08-09T13:47:22.840Z,35.30
2018-08-09T13:48:28.823Z,35.62
2018-08-09T13:49:34.529Z,35.59
2018-08-09T13:50:40.513Z,35.62
2018-08-09T13:51:46.483Z,35.50
2018-08-09T13:52:52.109Z,35.59
2018-08-09T13:53:57.753Z,35.74
2018-08-09T13:55:03.041Z,36.12
2018-08-09T13:56:08.352Z,36.37
2018-08-09T13:57:14.283Z,36.55
2018-08-09T13:58:19.544Z,36.11
2018-08-09T13:59:25.736Z,35.33
2018-08-09T14:00:31.332Z,35.18
2018-08-09T14:01:36.590Z,35.40
2018-08-09T14:02:42.211Z,35.34
2018-08-09T14:03:48.183Z,35.23
2018-08-09T14:04:53.451Z,35.29
2018-08-09T14:05:58.782Z,35.57
2018-08-09T14:07:04.045Z,35.81
2018-08-09T14:08:09.324Z,35.93
2018-08-09T14:09:15.269Z,36.20
2018-08-09T14:10:20.954Z,36.21
2018-08-09T14:11:26.276Z,35.85
2018-08-09T14:12:31.583Z,36.03
2018-08-09T14:13:37.149Z,35.71
2018-08-09T14:14:43.045Z,35.36
2018-08-09T14:15:48.997Z,35.54
2018-08-09T14:16:54.956Z,35.58
2018-08-09T14:18:00.908Z,35.38